createdAt,value
2022-12-31T00:01:47.250Z,99362.03
2022-12-31T00:04:14.983Z,99365.50
2022-12-31T00:06:43.987Z,99361.41
2022-12-31T00:09:11.940Z,99368.56
2022-12-31T00:11:40.888Z,99369.19
2022-12-31T00:14:08.861Z,99377.16
2022-12-31T00:16:38.696Z,99389.41
2022-12-31T00:19:10.781Z,99387.56
2022-12-31T00:21:38.465Z,99386.75
2022-12-31T00:24:08.349Z,99391.25
2022-12-31T00:26:36.681Z,99387.16
2022-12-31T00:29:06.023Z,99392.44
2022-12-31T00:31:35.788Z,99392.06
2022-12-31T00:34:03.709Z,99393.91
2022-12-31T00:36:33.474Z,99387.78
2022-12-31T00:39:02.717Z,99386.97
2022-12-31T00:41:32.159Z,99377.34
2022-12-31T00:44:00.550Z,99385.31
2022-12-31T00:46:28.434Z,99378.19
2022-12-31T00:48:56.576Z,99387.16
2022-12-31T00:51:27.294Z,99371.44
2022-12-31T00:53:55.647Z,99376.13
2022-12-31T00:56:25.304Z,99377.38
2022-12-31T00:58:54.675Z,99373.91
2022-12-31T01:01:24.466Z,99377.56
2022-12-31T01:03:54.585Z,99370.44
2022-12-31T01:06:22.685Z,99372.25
2022-12-31T01:08:52.107Z,99369.81
2022-12-31T01:11:19.816Z,99361.84
2022-12-31T01:13:48.890Z,99360.22
2022-12-31T01:16:19.722Z,99373.28
2022-12-31T01:18:47.406Z,99370.63
2022-12-31T01:21:16.007Z,99373.06
2022-12-31T01:23:43.871Z,99376.75
2022-12-31T01:26:13.070Z,99380.03
2022-12-31T01:28:41.233Z,99374.53
2022-12-31T01:31:11.455Z,99362.25
2022-12-31T01:33:41.296Z,99366.56
2022-12-31T01:36:12.287Z,99374.28
2022-12-31T01:38:41.001Z,99374.53
2022-12-31T01:41:09.407Z,99371.88
2022-12-31T01:43:49.733Z,99357.78
2022-12-31T01:46:26.748Z,99367.34
2022-12-31T01:48:58.892Z,99376.94
2022-12-31T01:51:29.937Z,99370.63
2022-12-31T01:53:58.911Z,99357.34
2022-12-31T01:56:27.172Z,99359.81
2022-12-31T01:58:57.439Z,99363.66
2022-12-31T02:01:28.995Z,99353.47
2022-12-31T02:03:58.509Z,99357.34
2022-12-31T02:06:33.407Z,99335.75
2022-12-31T02:09:01.790Z,99354.31
2022-12-31T02:11:32.919Z,99362.47
2022-12-31T02:14:15.691Z,99350.44
2022-12-31T02:16:53.485Z,99339.00
2022-12-31T02:19:57.122Z,99335.53
2022-12-31T02:22:42.482Z,99329.63
2022-12-31T02:25:26.483Z,99323.72
2022-12-31T02:28:02.966Z,99315.94
2022-12-31T02:30:32.796Z,99315.94
2022-12-31T02:33:14.737Z,99307.16
2022-12-31T02:35:50.569Z,99300.84
2022-12-31T02:38:22.443Z,99302.69
2022-12-31T02:40:50.568Z,99291.88
2022-12-31T02:43:18.221Z,99290.63
2022-12-31T02:45:52.100Z,99277.16
2022-12-31T02:48:38.067Z,99284.91
2022-12-31T02:51:19.175Z,99270.63
2022-12-31T02:54:05.380Z,99268.59
2022-12-31T02:56:43.158Z,99265.13
2022-12-31T02:59:35.307Z,99259.63
2022-12-31T03:02:19.498Z,99263.88
2022-12-31T03:04:52.291Z,99254.69
2022-12-31T03:07:22.606Z,99256.13
2022-12-31T03:09:50.877Z,99255.88
2022-12-31T03:12:39.038Z,99239.75
2022-12-31T03:15:19.845Z,99250.78
2022-12-31T03:17:55.671Z,99242.38
2022-12-31T03:20:43.726Z,99227.06
2022-12-31T03:23:16.104Z,99233.19
2022-12-31T03:25:43.549Z,99234.63
2022-12-31T03:28:14.527Z,99236.03
2022-12-31T03:30:44.713Z,99242.78
2022-12-31T03:33:14.711Z,99240.53
2022-12-31T03:35:43.948Z,99257.66
2022-12-31T03:38:11.951Z,99243.97
2022-12-31T03:40:43.755Z,99240.88
2022-12-31T03:43:11.930Z,99235.97
2022-12-31T03:45:40.335Z,99234.50
2022-12-31T03:48:10.632Z,99237.56
2022-12-31T03:50:39.715Z,99240.59
2022-12-31T03:53:07.434Z,99240.19
2022-12-31T03:55:35.153Z,99239.31
2022-12-31T03:58:02.855Z,99238.91
2022-12-31T04:00:30.688Z,99236.84
2022-12-31T04:02:58.435Z,99232.75
2022-12-31T04:05:26.133Z,99241.91
2022-12-31T04:07:55.816Z,99234.31
2022-12-31T04:10:23.668Z,99246.97
2022-12-31T04:12:51.392Z,99295.19
2022-12-31T04:15:21.743Z,99351.56
2022-12-31T04:17:49.636Z,99347.34
2022-12-31T04:20:17.999Z,99335.34
2022-12-31T04:22:45.663Z,99353.56
2022-12-31T04:25:14.827Z,99341.94
2022-12-31T04:27:44.021Z,99338.50
2022-12-31T04:30:14.003Z,99346.47
2022-12-31T04:32:42.177Z,99348.94
2022-12-31T04:35:11.511Z,99351.38
2022-12-31T04:37:39.608Z,99347.28
2022-12-31T04:40:08.816Z,99356.72
2022-12-31T04:42:38.181Z,99360.78
2022-12-31T04:45:06.814Z,99347.94
2022-12-31T04:47:34.508Z,99360.59
2022-12-31T04:50:02.224Z,99359.16
2022-12-31T04:52:29.852Z,99368.19
2022-12-31T04:54:57.533Z,99360.22
2022-12-31T04:57:25.302Z,99345.50
2022-12-31T04:59:54.356Z,99351.84
2022-12-31T05:02:22.152Z,99351.84
2022-12-31T05:04:50.086Z,99347.34
2022-12-31T05:07:18.690Z,99358.78
2022-12-31T05:09:46.396Z,99351.84
2022-12-31T05:12:14.055Z,99345.91
2022-12-31T05:14:41.922Z,99344.06
2022-12-31T05:17:10.951Z,99349.38
2022-12-31T05:19:39.549Z,99341.63
2022-12-31T05:22:24.585Z,99331.81
2022-12-31T05:24:52.334Z,99343.25
2022-12-31T05:27:20.007Z,99345.91
2022-12-31T05:29:47.651Z,99344.28
2022-12-31T05:32:16.874Z,99341.84
2022-12-31T05:34:44.647Z,99346.72
2022-12-31T05:37:13.000Z,99338.56
2022-12-31T05:39:40.664Z,99342.03
2022-12-31T05:42:08.420Z,99333.06
2022-12-31T05:44:36.080Z,99337.34
2022-12-31T05:47:03.782Z,99332.03
2022-12-31T05:49:32.799Z,99334.47
2022-12-31T05:52:00.483Z,99323.84
2022-12-31T05:54:28.276Z,99330.59
2022-12-31T05:56:56.080Z,99332.84
2022-12-31T05:59:23.751Z,99325.25
2022-12-31T06:01:51.568Z,99318.53
2022-12-31T06:04:19.260Z,99323.19
2022-12-31T06:06:48.416Z,99321.16
2022-12-31T06:09:16.576Z,99311.75
2022-12-31T06:11:44.349Z,99319.09
2022-12-31T06:14:12.411Z,99304.56
2022-12-31T06:16:40.396Z,99302.31
2022-12-31T06:19:08.798Z,99297.63
2022-12-31T06:21:36.472Z,99296.38
2022-12-31T06:24:06.209Z,99291.47
2022-12-31T06:26:33.952Z,99287.34
2022-12-31T06:29:01.683Z,99297.34
2022-12-31T06:31:29.425Z,99311.00
2022-12-31T06:33:57.109Z,99306.09
2022-12-31T06:36:24.819Z,99304.44
2022-12-31T06:38:52.497Z,99300.09
2022-12-31T06:41:22.039Z,99310.31
2022-12-31T06:43:50.089Z,99313.13
2022-12-31T06:46:19.352Z,99316.81
2022-12-31T06:48:47.190Z,99324.38
2022-12-31T06:51:17.716Z,99311.25
2022-12-31T06:53:45.737Z,99321.25
2022-12-31T06:56:17.656Z,99323.88
2022-12-31T06:58:47.893Z,99341.63
2022-12-31T07:01:34.782Z,99350.56
2022-12-31T07:04:14.634Z,99326.59
2022-12-31T07:06:48.827Z,99349.41
2022-12-31T07:09:26.336Z,99365.91
2022-12-31T07:12:05.251Z,99355.41
2022-12-31T07:14:42.292Z,99367.19
2022-12-31T07:17:26.982Z,99357.88
2022-12-31T07:20:00.467Z,99360.63
2022-12-31T07:22:28.746Z,99378.78
2022-12-31T07:24:57.060Z,99369.69
2022-12-31T07:27:37.358Z,99370.69
2022-12-31T07:30:12.671Z,99374.31
2022-12-31T07:33:02.498Z,99389.19
2022-12-31T07:35:40.156Z,99391.22
2022-12-31T07:38:17.789Z,99388.34
2022-12-31T07:40:58.213Z,99386.25
2022-12-31T07:43:34.103Z,99394.03
2022-12-31T07:46:13.083Z,99407.94
2022-12-31T07:48:41.331Z,99396.84
2022-12-31T07:51:11.607Z,99407.06
2022-12-31T07:53:40.429Z,99408.69
2022-12-31T07:56:10.367Z,99407.19
2022-12-31T07:58:58.315Z,99420.91
2022-12-31T08:01:35.858Z,99407.94
2022-12-31T08:04:08.370Z,99425.94
2022-12-31T08:06:46.667Z,99420.75
2022-12-31T08:09:30.665Z,99415.34
2022-12-31T08:11:59.662Z,99435.22
2022-12-31T08:14:29.117Z,99421.00
2022-12-31T08:16:58.940Z,99427.50
2022-12-31T08:19:30.438Z,99435.28
2022-12-31T08:22:15.359Z,99424.72
2022-12-31T08:24:58.387Z,99439.88
2022-12-31T08:27:34.490Z,99417.97
2022-12-31T08:30:06.468Z,99427.19
2022-12-31T08:32:40.914Z,99420.56
2022-12-31T08:35:26.107Z,99435.09
2022-12-31T08:38:03.379Z,99412.25
2022-12-31T08:40:51.438Z,99430.28
2022-12-31T08:43:37.513Z,99435.75
2022-12-31T08:46:15.359Z,99447.25
2022-12-31T08:48:45.099Z,99426.38
2022-12-31T08:51:16.553Z,99429.06
2022-12-31T08:53:44.762Z,99433.69
2022-12-31T08:56:22.555Z,99445.56
2022-12-31T08:58:58.599Z,99458.22
2022-12-31T09:01:31.387Z,99444.19
2022-12-31T09:04:13.086Z,99462.81
2022-12-31T09:06:48.111Z,99456.38
2022-12-31T09:09:26.219Z,99460.59
2022-12-31T09:12:00.582Z,99445.53
2022-12-31T09:14:49.383Z,99460.31
2022-12-31T09:17:48.507Z,99475.41
2022-12-31T09:20:22.011Z,99462.50
2022-12-31T09:22:50.250Z,99466.34
2022-12-31T09:25:21.420Z,99450.88
2022-12-31T09:27:59.007Z,99473.91
2022-12-31T09:30:29.901Z,99468.81
2022-12-31T09:33:06.156Z,99469.97
2022-12-31T09:35:39.475Z,99476.13
2022-12-31T09:38:17.673Z,99480.19
2022-12-31T09:41:05.778Z,99473.34
2022-12-31T09:44:17.059Z,99484.63
2022-12-31T09:47:20.033Z,99476.59
2022-12-31T09:50:19.528Z,99484.38
2022-12-31T09:53:02.392Z,99488.31
2022-12-31T09:55:38.332Z,99495.78
2022-12-31T09:58:23.661Z,99502.72
2022-12-31T10:00:54.464Z,99496.94
2022-12-31T10:03:41.801Z,99505.75
2022-12-31T10:06:28.560Z,99521.34
2022-12-31T10:09:28.417Z,99502.66
2022-12-31T10:12:12.800Z,99521.03
2022-12-31T10:14:57.816Z,99496.28
2022-12-31T10:17:39.752Z,99506.97
2022-12-31T10:20:43.311Z,99501.63
2022-12-31T10:23:28.299Z,99513.72
2022-12-31T10:26:40.516Z,99545.22
2022-12-31T10:29:21.685Z,99539.53
2022-12-31T10:32:03.168Z,99538.00
2022-12-31T10:34:40.584Z,99553.47
2022-12-31T10:37:16.013Z,99546.97
2022-12-31T10:39:54.937Z,99568.34
2022-12-31T10:43:10.180Z,99577.88
2022-12-31T10:46:10.322Z,99563.31
2022-12-31T10:49:20.237Z,99595.09
2022-12-31T10:52:09.640Z,99601.88
2022-12-31T10:55:05.597Z,99623.34
2022-12-31T10:58:02.042Z,99614.41
2022-12-31T11:00:36.339Z,99618.56
2022-12-31T11:03:42.643Z,99611.13
2022-12-31T11:06:38.771Z,99605.06
2022-12-31T11:09:53.557Z,99607.75
2022-12-31T11:12:43.488Z,99599.34
2022-12-31T11:15:28.740Z,99612.06
2022-12-31T11:18:07.219Z,99606.50
2022-12-31T11:20:56.785Z,99610.34
2022-12-31T11:23:38.545Z,99601.69
2022-12-31T11:26:17.535Z,99602.78
2022-12-31T11:29:11.936Z,99594.63
2022-12-31T11:31:52.217Z,99601.13
2022-12-31T11:34:33.904Z,99592.53
2022-12-31T11:37:19.436Z,99594.97
2022-12-31T11:39:58.288Z,99592.75
2022-12-31T11:42:33.826Z,99592.19
2022-12-31T11:45:15.576Z,99583.13
2022-12-31T11:48:29.699Z,99576.97
2022-12-31T11:51:03.145Z,99577.88
2022-12-31T11:53:51.002Z,99575.00
2022-12-31T11:56:20.214Z,99562.66
2022-12-31T11:58:51.389Z,99564.06
2022-12-31T12:01:25.817Z,99565.34
2022-12-31T12:03:54.023Z,99570.34
2022-12-31T12:06:26.818Z,99556.84
2022-12-31T12:08:57.744Z,99579.88
2022-12-31T12:11:29.548Z,99568.59
2022-12-31T12:13:57.819Z,99568.84
2022-12-31T12:16:28.535Z,99579.53
2022-12-31T12:19:04.699Z,99584.88
2022-12-31T12:21:32.740Z,99582.91
2022-12-31T12:24:03.048Z,99580.69
2022-12-31T12:26:35.732Z,99562.69
2022-12-31T12:29:11.063Z,99575.81
2022-12-31T12:31:40.455Z,99596.63
2022-12-31T12:34:23.616Z,99594.06
2022-12-31T12:36:51.441Z,99590.81
2022-12-31T12:39:22.441Z,99597.19
2022-12-31T12:42:01.599Z,99594.41
2022-12-31T12:44:29.301Z,99588.03
2022-12-31T12:46:59.511Z,99605.59
2022-12-31T12:49:29.824Z,99603.34
2022-12-31T12:52:29.624Z,99599.19
2022-12-31T12:55:09.281Z,99603.97
2022-12-31T12:57:47.734Z,99581.38
2022-12-31T13:00:21.105Z,99579.75
2022-12-31T13:03:16.850Z,99593.97
2022-12-31T13:05:56.103Z,99592.09
2022-12-31T13:08:36.613Z,99581.59
2022-12-31T13:11:17.629Z,99591.84
2022-12-31T13:13:54.803Z,99592.66
2022-12-31T13:16:33.608Z,99598.00
2022-12-31T13:19:10.798Z,99599.53
2022-12-31T13:21:46.702Z,99593.81
2022-12-31T13:24:28.643Z,99587.44
2022-12-31T13:27:05.416Z,99596.88
2022-12-31T13:29:36.158Z,99585.25
2022-12-31T13:32:07.543Z,99596.50
2022-12-31T13:34:41.278Z,99601.38
2022-12-31T13:37:23.540Z,99592.91
2022-12-31T13:40:00.322Z,99625.69
2022-12-31T13:42:37.016Z,99624.75
2022-12-31T13:45:11.244Z,99621.72
2022-12-31T13:47:44.983Z,99607.41
2022-12-31T13:50:20.736Z,99622.88
2022-12-31T13:52:53.948Z,99615.75
2022-12-31T13:55:26.281Z,99620.19
2022-12-31T13:57:58.955Z,99625.59
2022-12-31T14:00:32.183Z,99645.06
2022-12-31T14:03:07.874Z,99634.03
2022-12-31T14:05:44.535Z,99639.31
2022-12-31T14:08:12.299Z,99642.06
2022-12-31T14:10:49.868Z,99647.84
2022-12-31T14:13:34.839Z,99649.34
2022-12-31T14:16:11.944Z,99644.44
2022-12-31T14:18:46.846Z,99637.50
2022-12-31T14:21:24.223Z,99635.88
2022-12-31T14:24:03.261Z,99635.72
2022-12-31T14:26:35.790Z,99648.94
2022-12-31T14:29:15.375Z,99665.84
2022-12-31T14:32:22.887Z,99687.50
2022-12-31T14:34:59.508Z,99685.28
2022-12-31T14:37:40.654Z,99683.28
2022-12-31T14:40:21.085Z,99668.50
2022-12-31T14:42:59.366Z,99670.00
2022-12-31T14:45:37.204Z,99681.72
2022-12-31T14:48:21.564Z,99682.38
2022-12-31T14:50:50.150Z,99691.25
2022-12-31T14:53:23.681Z,99685.97
2022-12-31T14:55:58.720Z,99686.84
2022-12-31T14:58:32.913Z,99691.81
2022-12-31T15:01:02.008Z,99692.22
2022-12-31T15:03:45.048Z,99695.16
2022-12-31T15:06:33.454Z,99684.78
2022-12-31T15:09:12.769Z,99698.78
2022-12-31T15:11:52.483Z,99684.06
2022-12-31T15:15:04.990Z,99693.75
2022-12-31T15:17:44.710Z,99709.81
2022-12-31T15:20:32.963Z,99700.81
2022-12-31T15:23:00.838Z,99696.34
2022-12-31T15:25:40.344Z,99689.41
2022-12-31T15:28:24.529Z,99684.13
2022-12-31T15:30:53.975Z,99710.41
2022-12-31T15:33:30.634Z,99696.47
2022-12-31T15:35:59.203Z,99704.06
2022-12-31T15:38:37.390Z,99703.69
2022-12-31T15:41:25.723Z,99678.72
2022-12-31T15:43:57.862Z,99705.41
2022-12-31T15:46:31.439Z,99696.59
2022-12-31T15:49:06.782Z,99706.06
2022-12-31T15:51:46.196Z,99712.22
2022-12-31T15:54:24.138Z,99723.28
2022-12-31T15:56:54.652Z,99715.72
2022-12-31T15:59:23.859Z,99735.59
2022-12-31T16:01:51.775Z,99719.81
2022-12-31T16:04:22.057Z,99728.81
2022-12-31T16:06:51.580Z,99727.44
2022-12-31T16:09:24.317Z,99734.19
2022-12-31T16:11:55.847Z,99742.38
2022-12-31T16:14:26.071Z,99722.50
2022-12-31T16:16:56.721Z,99738.91
2022-12-31T16:19:30.308Z,99730.66
2022-12-31T16:22:01.787Z,99736.81
2022-12-31T16:24:31.182Z,99735.19
2022-12-31T16:27:03.885Z,99737.63
2022-12-31T16:29:31.972Z,99734.38
2022-12-31T16:31:59.637Z,99740.75
2022-12-31T16:34:28.843Z,99738.06
2022-12-31T16:36:59.008Z,99738.91
2022-12-31T16:39:30.079Z,99743.00
2022-12-31T16:42:20.911Z,99738.91
2022-12-31T16:44:51.778Z,99744.22
2022-12-31T16:47:23.041Z,99748.56
2022-12-31T16:50:00.437Z,99742.22
2022-12-31T16:52:32.975Z,99758.84
2022-12-31T16:55:01.155Z,99749.81
2022-12-31T16:57:32.332Z,99737.75
2022-12-31T17:00:03.736Z,99734.28
2022-12-31T17:02:37.881Z,99740.63
2022-12-31T17:05:18.237Z,99741.84
2022-12-31T17:07:45.937Z,99745.13
2022-12-31T17:10:19.298Z,99726.53
2022-12-31T17:13:27.440Z,99724.47
2022-12-31T17:15:42.092Z,99723.88
2022-12-31T17:18:18.385Z,99724.28
2022-12-31T17:20:46.207Z,99729.19
2022-12-31T17:23:23.846Z,99719.78
2022-12-31T17:25:58.799Z,99713.66
2022-12-31T17:28:31.819Z,99717.31
2022-12-31T17:31:01.909Z,99724.28
2022-12-31T17:33:32.307Z,99719.16
2022-12-31T17:36:22.968Z,99715.50
2022-12-31T17:38:51.321Z,99711.81
2022-12-31T17:41:25.955Z,99717.94
2022-12-31T17:43:57.654Z,99703.41
2022-12-31T17:46:26.552Z,99699.91
2022-12-31T17:49:03.554Z,99700.16
2022-12-31T17:51:31.445Z,99703.81
2022-12-31T17:54:01.275Z,99703.78
2022-12-31T17:56:29.110Z,99697.63
2022-12-31T17:58:58.223Z,99692.28
2022-12-31T18:01:27.389Z,99687.53
2022-12-31T18:03:56.725Z,99676.88
2022-12-31T18:06:24.463Z,99672.78
2022-12-31T18:08:52.185Z,99679.94
2022-12-31T18:11:23.228Z,99681.50
2022-12-31T18:13:51.623Z,99680.66
2022-12-31T18:16:20.765Z,99677.59
2022-12-31T18:18:48.499Z,99667.31
2022-12-31T18:21:22.572Z,99678.38
2022-12-31T18:23:51.880Z,99679.19
2022-12-31T18:26:22.386Z,99680.94
2022-12-31T18:28:50.506Z,99674.44
2022-12-31T18:31:22.320Z,99672.91
2022-12-31T18:33:52.011Z,99676.19
2022-12-31T18:36:21.221Z,99677.63
2022-12-31T18:38:49.507Z,99678.25
2022-12-31T18:41:19.532Z,99695.25
2022-12-31T18:43:48.101Z,99686.44
2022-12-31T18:46:18.214Z,99668.19
2022-12-31T18:48:47.430Z,99681.72
2022-12-31T18:51:17.707Z,99671.47
2022-12-31T18:53:45.656Z,99660.28
2022-12-31T18:56:15.197Z,99663.22
2022-12-31T18:58:43.385Z,99650.31
2022-12-31T19:01:26.104Z,99657.88
2022-12-31T19:03:56.595Z,99680.44
2022-12-31T19:06:24.421Z,99683.53
2022-12-31T19:08:52.433Z,99663.69
2022-12-31T19:11:21.077Z,99681.31
2022-12-31T19:13:49.402Z,99681.47
2022-12-31T19:16:17.964Z,99684.13
2022-12-31T19:18:47.326Z,99697.91
2022-12-31T19:21:18.797Z,99683.38
2022-12-31T19:23:46.965Z,99692.59
2022-12-31T19:26:17.251Z,99692.38
2022-12-31T19:28:45.698Z,99694.69
2022-12-31T19:31:13.795Z,99678.69
2022-12-31T19:33:42.224Z,99675.00
2022-12-31T19:36:15.945Z,99690.38
2022-12-31T19:38:45.901Z,99700.00
2022-12-31T19:41:16.969Z,99684.44
2022-12-31T19:43:44.737Z,99704.56
2022-12-31T19:46:14.493Z,99702.50
2022-12-31T19:48:42.357Z,99705.22
2022-12-31T19:51:12.386Z,99703.19
2022-12-31T19:53:40.207Z,99701.75
2022-12-31T19:56:13.419Z,99703.19
2022-12-31T19:58:41.192Z,99706.06
2022-12-31T20:01:09.371Z,99704.03
2022-12-31T20:03:37.210Z,99706.72
2022-12-31T20:06:06.974Z,99708.56
2022-12-31T20:08:35.105Z,99703.22
2022-12-31T20:11:12.372Z,99718.97
2022-12-31T20:13:41.051Z,99721.88
2022-12-31T20:16:09.812Z,99724.75
2022-12-31T20:18:38.244Z,99732.94
2022-12-31T20:21:09.744Z,99729.25
2022-12-31T20:23:37.476Z,99736.38
2022-12-31T20:26:05.356Z,99731.25
2022-12-31T20:28:34.408Z,99732.53
2022-12-31T20:31:06.208Z,99726.56
2022-12-31T20:33:34.699Z,99727.81
2022-12-31T20:36:02.989Z,99728.25
2022-12-31T20:38:30.750Z,99729.66
2022-12-31T20:41:04.020Z,99738.47
2022-12-31T20:43:32.437Z,99756.91
2022-12-31T20:46:10.967Z,99753.41
2022-12-31T20:48:42.464Z,99757.72
2022-12-31T20:51:10.335Z,99745.84
2022-12-31T20:53:38.085Z,99760.75
2022-12-31T20:56:06.665Z,99755.22
2022-12-31T20:58:34.555Z,99765.06
2022-12-31T21:01:07.027Z,99768.34
2022-12-31T21:06:28.892Z,99757.25
2022-12-31T21:08:57.331Z,99765.22
2022-12-31T21:11:43.183Z,99761.09
2022-12-31T21:14:11.054Z,99774.16
2022-12-31T21:16:40.182Z,99775.19
2022-12-31T21:19:07.877Z,99765.72
2022-12-31T21:21:35.601Z,99769.81
2022-12-31T21:24:03.612Z,99772.66
2022-12-31T21:26:31.514Z,99775.94
2022-12-31T21:28:59.477Z,99779.19
2022-12-31T21:31:27.423Z,99789.44
2022-12-31T21:33:56.611Z,99782.06
2022-12-31T21:36:24.431Z,99769.94
2022-12-31T21:38:52.195Z,99776.94
2022-12-31T21:41:37.222Z,99775.28
2022-12-31T21:44:04.934Z,99782.25
2022-12-31T21:46:32.746Z,99776.94
2022-12-31T21:49:02.021Z,99783.06
2022-12-31T21:51:30.523Z,99784.31
2022-12-31T21:53:58.962Z,99767.13
2022-12-31T21:56:25.751Z,99790.28
2022-12-31T21:59:13.662Z,99787.84
2022-12-31T22:01:58.965Z,99787.00
2022-12-31T22:05:00.928Z,99787.63
2022-12-31T22:07:16.648Z,99791.94
2022-12-31T22:09:44.486Z,99801.97
2022-12-31T22:12:12.203Z,99802.38
2022-12-31T22:14:39.956Z,99794.19
2022-12-31T22:17:27.596Z,99794.81
2022-12-31T22:22:44.351Z,99810.38
2022-12-31T22:25:12.152Z,99819.44
2022-12-31T22:27:39.918Z,99813.28
2022-12-31T22:30:08.957Z,99816.78
2022-12-31T22:32:36.804Z,99812.22
2022-12-31T22:35:07.699Z,99821.03
2022-12-31T22:37:56.148Z,99824.16
2022-12-31T22:40:23.261Z,99832.34
2022-12-31T22:42:51.011Z,99827.44
2022-12-31T22:45:18.812Z,99830.09
2022-12-31T22:47:46.506Z,99829.06
2022-12-31T22:50:15.728Z,99838.91
2022-12-31T22:52:43.390Z,99854.50
2022-12-31T22:55:11.227Z,99849.53
2022-12-31T22:57:38.887Z,99845.44
2022-12-31T23:00:12.673Z,99848.91
2022-12-31T23:02:42.310Z,99850.91
2022-12-31T23:05:16.238Z,99855.44
2022-12-31T23:07:45.584Z,99851.91
2022-12-31T23:10:31.752Z,99858.44
2022-12-31T23:13:19.591Z,99865.63
2022-12-31T23:16:04.768Z,99848.00
2022-12-31T23:18:50.033Z,99850.91
2022-12-31T23:21:35.381Z,99849.53
2022-12-31T23:24:04.715Z,99853.66
2022-12-31T23:26:32.426Z,99850.97
2022-12-31T23:29:00.185Z,99864.09
2022-12-31T23:31:28.910Z,99861.22
2022-12-31T23:33:56.883Z,99864.28
2022-12-31T23:36:24.779Z,99860.78
2022-12-31T23:38:56.247Z,99872.69
2022-12-31T23:41:25.482Z,99875.16
2022-12-31T23:43:53.182Z,99868.75
2022-12-31T23:46:20.942Z,99858.34
2022-12-31T23:48:48.688Z,99858.91
2022-12-31T23:51:16.470Z,99877.38
2022-12-31T23:53:44.196Z,99870.19
2022-12-31T23:56:23.078Z,99877.38
2022-12-31T23:58:56.089Z,99869.38
